Time;durP1;ratioP1;P1;durP2;ratioP2;P2;SDS_P1;SDS_P2;PMS_P1;PMS_P2;Temp;Humidity;BMP_temperature;BMP_pressure;BME280_temperature;BME280_humidity;BME280_pressure;Samples;Min_cycle;Max_cycle;Signal;HPM_P1;HPM_P2
2022/03/06 00:02:07;;;;;;;11.50;7.87;;;-0.50;99.90;;;0.11;100.00;-19730.41;4984093;28;20269;-61
2022/03/06 00:04:39;;;;;;;11.13;8.20;;;-0.50;99.90;;;0.25;100.00;-19735.38;4984918;28;20321;-60
2022/03/06 00:07:07;;;;;;;9.47;7.90;;;-0.50;99.90;;;0.10;100.00;-19730.25;4984087;28;20555;-60
2022/03/06 00:09:36;;;;;;;10.07;7.67;;;-0.50;99.90;;;0.08;100.00;-19729.38;4984058;28;20272;-61
2022/03/06 00:12:11;;;;;;;10.17;8.30;;;-0.50;99.90;;;0.12;100.00;-19730.75;4985670;28;20606;-59
2022/03/06 00:14:47;;;;;;;9.47;7.47;;;-0.50;99.90;;;0.19;100.00;-19733.31;4984926;28;20591;-60
2022/03/06 00:17:17;;;;;;;9.27;7.60;;;-0.40;99.90;;;0.21;100.00;-19733.84;4984435;28;20320;-61
2022/03/06 00:19:45;;;;;;;9.77;7.90;;;-0.50;99.90;;;0.31;100.00;-19737.44;4980603;28;20274;-61
2022/03/06 00:22:26;;;;;;;10.97;7.90;;;-0.40;99.90;;;0.21;100.00;-19733.84;4985317;28;20235;-60
2022/03/06 00:24:56;;;;;;;9.53;7.40;;;-0.40;99.90;;;0.24;100.00;-19735.03;4985015;28;20232;-59
2022/03/06 00:27:33;;;;;;;7.73;6.97;;;-0.40;99.90;;;0.18;100.00;-19732.97;4983715;28;20216;-59
2022/03/06 00:30:07;;;;;;;12.33;7.73;;;-0.40;99.90;;;0.22;100.00;-19734.34;4982691;28;20327;-60
2022/03/06 00:32:39;;;;;;;8.77;7.73;;;-0.40;99.90;;;0.46;100.00;-19742.38;4974151;28;20295;-60
2022/03/06 00:35:09;;;;;;;10.73;7.47;;;-0.30;99.90;;;0.99;100.00;-19760.69;4982881;28;20780;-61
2022/03/06 00:37:39;;;;;;;9.57;7.53;;;-0.10;99.90;;;1.08;98.97;-19763.59;4984919;28;20267;-60
2022/03/06 00:40:13;;;;;;;10.20;7.53;;;0.00;99.90;;;0.68;100.00;-19750.06;4984894;28;20251;-60
2022/03/06 00:42:41;;;;;;;9.27;7.40;;;-0.10;99.90;;;0.88;99.96;-19756.91;4976627;28;20226;-61
2022/03/06 00:45:12;;;;;;;9.70;7.07;;;0.00;99.90;;;1.14;97.29;-19765.63;4984576;28;20242;-59
2022/03/06 00:47:43;;;;;;;8.47;7.27;;;0.10;99.90;;;0.90;97.71;-19757.59;4984730;28;20227;-60
2022/03/06 00:50:15;;;;;;;8.57;7.20;;;0.10;99.90;;;0.65;99.92;-19749.06;4978286;28;20253;-60
2022/03/06 00:52:57;;;;;;;8.87;6.87;;;0.00;99.90;;;0.55;100.00;-19745.47;4985754;28;20267;-60
2022/03/06 00:55:27;;;;;;;9.23;7.30;;;0.00;99.90;;;0.55;100.00;-19745.63;4983694;28;20277;-60
2022/03/06 00:58:05;;;;;;;9.57;6.93;;;-0.10;99.90;;;0.69;99.64;-19750.41;4973750;28;20233;-59
2022/03/06 01:00:41;;;;;;;7.73;6.77;;;0.00;99.90;;;0.68;99.78;-19750.06;4984603;28;20193;-60
2022/03/06 01:03:25;;;;;;;8.03;6.60;;;0.00;99.90;;;0.89;98.44;-19757.25;4983595;28;20290;-59
2022/03/06 01:06:02;;;;;;;8.03;6.50;;;0.00;99.90;;;1.00;97.16;-19760.84;4983439;28;20224;-60
2022/03/06 01:08:30;;;;;;;9.63;6.87;;;0.10;99.90;;;0.81;97.53;-19754.34;4983409;28;20318;-58
2022/03/06 01:11:03;;;;;;;8.97;7.10;;;0.10;99.90;;;0.86;96.52;-19756.06;4982496;28;20325;-61
2022/03/06 01:13:42;;;;;;;8.47;6.30;;;0.10;99.90;;;0.79;96.74;-19753.84;4982476;28;20304;-59
2022/03/06 01:16:13;;;;;;;7.47;6.53;;;0.00;99.90;;;0.72;97.62;-19751.28;4979485;28;20262;-59
2022/03/06 01:18:52;;;;;;;7.83;6.17;;;0.00;99.90;;;0.77;96.99;-19753.16;4983448;28;20186;-59
2022/03/06 01:21:20;;;;;;;9.63;6.43;;;0.00;99.90;;;0.81;95.77;-19754.34;4983499;28;20231;-58
2022/03/06 01:23:48;;;;;;;7.73;6.57;;;0.00;99.90;;;0.78;96.13;-19753.31;4974831;28;20258;-60
2022/03/06 01:26:27;;;;;;;8.63;6.20;;;0.00;99.90;;;0.88;96.09;-19756.75;4982615;28;20224;-60
2022/03/06 01:28:55;;;;;;;8.07;6.40;;;0.10;99.90;;;0.96;95.33;-19759.47;4972339;28;20710;-61
2022/03/06 01:31:31;;;;;;;8.37;6.60;;;0.10;99.90;;;1.50;91.87;-19777.78;4983018;28;20318;-60
2022/03/06 01:34:09;;;;;;;7.43;6.57;;;0.30;99.90;;;1.38;91.79;-19773.84;4972758;28;20255;-60
2022/03/06 01:36:41;;;;;;;7.70;6.30;;;0.40;99.90;;;1.29;91.91;-19770.75;4982508;28;20272;-60
2022/03/06 01:39:15;;;;;;;7.00;6.23;;;0.40;99.90;;;1.43;92.11;-19775.38;4984179;28;20268;-59
2022/03/06 01:41:43;;;;;;;7.77;6.97;;;0.50;99.90;;;1.17;94.21;-19766.84;4973897;28;20321;-58
2022/03/06 01:44:19;;;;;;;9.67;7.00;;;0.40;99.90;;;1.26;95.54;-19769.75;4982803;28;20295;-61
2022/03/06 01:46:55;;;;;;;8.03;6.80;;;0.40;99.90;;;1.21;95.61;-19768.19;4976559;28;20814;-60
2022/03/06 01:49:24;;;;;;;8.27;7.17;;;0.40;99.90;;;1.28;95.17;-19770.41;4983096;28;20288;-59
2022/03/06 01:52:02;;;;;;;9.97;7.70;;;0.40;99.90;;;1.02;96.06;-19761.69;4975323;28;20219;-60
2022/03/06 01:54:30;;;;;;;8.37;7.37;;;0.40;99.90;;;1.24;96.91;-19769.22;4994944;28;20277;-60
2022/03/06 01:56:58;;;;;;;7.93;7.13;;;0.30;99.90;;;1.29;95.99;-19770.59;4982538;28;20255;-61
2022/03/06 01:59:33;;;;;;;7.87;7.07;;;0.40;99.90;;;1.27;95.07;-19770.06;4979118;28;20235;-59
2022/03/06 02:02:14;;;;;;;10.67;7.37;;;0.40;99.90;;;1.18;95.32;-19767.00;4983048;28;20839;-59
2022/03/06 02:04:42;;;;;;;7.67;6.97;;;0.40;99.90;;;1.64;92.71;-19782.72;4984049;28;20239;-60
2022/03/06 02:07:11;;;;;;;7.90;7.10;;;0.50;99.90;;;1.77;91.23;-19787.19;4975903;28;20252;-59
2022/03/06 02:09:41;;;;;;;7.50;6.70;;;0.60;99.90;;;1.39;92.19;-19774.00;4980694;28;20522;-61
2022/03/06 02:12:25;;;;;;;8.40;6.63;;;0.60;99.90;;;1.22;94.74;-19768.53;4981482;28;20240;-59
2022/03/06 02:14:56;;;;;;;7.53;6.77;;;0.50;99.90;;;1.17;95.76;-19766.66;4981954;28;20327;-59
2022/03/06 02:17:28;;;;;;;8.27;6.77;;;0.40;99.90;;;1.39;94.95;-19774.19;4983131;28;20703;-60
2022/03/06 02:20:07;;;;;;;8.87;6.63;;;0.40;99.90;;;1.30;92.60;-19770.94;4981921;28;20234;-58
2022/03/06 02:23:02;;;;;;;7.77;6.73;;;0.50;99.90;;;1.10;95.28;-19764.25;4977022;28;20300;-61
2022/03/06 02:25:38;;;;;;;7.97;7.17;;;0.40;99.90;;;1.24;95.43;-19769.22;4982148;28;20237;-59
2022/03/06 02:28:11;;;;;;;7.97;6.23;;;0.40;99.90;;;1.58;93.17;-19780.50;4982788;28;20235;-60
2022/03/06 02:30:45;;;;;;;7.33;6.27;;;0.50;99.90;;;1.27;93.58;-19770.25;4980993;28;20247;-61
2022/03/06 02:33:17;;;;;;;8.30;6.57;;;0.50;99.90;;;1.24;93.68;-19769.06;4982931;28;20189;-59
2022/03/06 02:35:45;;;;;;;6.47;5.83;;;0.50;99.90;;;1.20;93.79;-19767.69;4975318;28;20291;-61
2022/03/06 02:38:26;;;;;;;7.07;6.20;;;0.40;99.90;;;1.27;94.22;-19770.25;4974158;28;20295;-60
2022/03/06 02:40:55;;;;;;;7.63;6.20;;;0.40;99.90;;;1.16;94.37;-19766.31;4971161;28;20327;-60
2022/03/06 02:43:26;;;;;;;6.43;5.73;;;0.40;99.90;;;1.09;95.88;-19764.09;4983607;28;20304;-60
2022/03/06 02:46:09;;;;;;;6.83;6.13;;;0.40;99.90;;;1.01;95.72;-19761.19;4973458;28;20206;-58
2022/03/06 02:48:53;;;;;;;6.60;5.90;;;0.30;99.90;;;1.16;94.76;-19766.50;4981082;28;20192;-61
2022/03/06 02:51:21;;;;;;;7.90;6.10;;;0.40;99.90;;;1.42;93.11;-19775.03;4982370;28;20722;-61
2022/03/06 02:53:51;;;;;;;6.20;5.50;;;0.50;99.90;;;1.22;93.77;-19768.38;4976463;28;20258;-60
2022/03/06 02:56:19;;;;;;;6.37;5.53;;;0.40;99.90;;;1.20;94.54;-19767.69;4970397;28;20322;-59
2022/03/06 02:58:52;;;;;;;6.47;5.53;;;0.40;99.90;;;1.44;92.26;-19775.88;4981923;28;20395;-61
2022/03/06 03:01:21;;;;;;;6.83;5.60;;;0.40;99.90;;;1.48;91.94;-19777.09;4980550;28;20304;-59
2022/03/06 03:03:50;;;;;;;6.23;5.47;;;0.50;99.90;;;1.36;92.04;-19772.97;4981742;28;20205;-58
2022/03/06 03:06:25;;;;;;;6.37;5.43;;;0.60;99.90;;;1.31;92.43;-19771.28;4981630;28;20287;-60
2022/03/06 03:08:55;;;;;;;9.03;5.77;;;0.50;99.90;;;1.43;93.21;-19775.38;4982130;28;20294;-60
2022/03/06 03:11:31;;;;;;;7.03;5.57;;;0.50;99.90;;;1.20;93.96;-19767.84;4971110;28;20723;-59
2022/03/06 03:14:02;;;;;;;6.57;5.87;;;0.50;99.90;;;1.27;94.06;-19770.25;4981142;28;20235;-61
2022/03/06 03:16:45;;;;;;;7.37;6.00;;;0.50;99.90;;;1.35;93.08;-19772.66;4980215;28;20228;-59
2022/03/06 03:19:26;;;;;;;5.87;5.13;;;0.60;99.90;;;1.27;93.70;-19769.91;4981169;28;20227;-60
2022/03/06 03:21:55;;;;;;;6.77;6.07;;;0.50;99.90;;;1.20;94.17;-19767.69;4981078;28;20298;-60
2022/03/06 03:24:29;;;;;;;6.73;5.40;;;0.50;99.90;;;1.25;94.09;-19769.56;4979754;28;20223;-60
2022/03/06 03:26:58;;;;;;;10.23;5.90;;;0.50;99.90;;;1.35;94.97;-19772.81;4980774;28;20251;-60
2022/03/06 03:29:32;;;;;;;7.33;5.47;;;0.60;99.90;;;1.62;93.67;-19781.88;4968946;28;20236;-60
2022/03/06 03:32:06;;;;;;;6.90;5.80;;;0.70;99.90;;;1.59;92.22;-19781.03;4980800;28;20323;-60
2022/03/06 03:34:35;;;;;;;7.53;5.60;;;0.70;99.90;;;1.41;93.10;-19774.69;4972567;28;20224;-60
2022/03/06 03:37:05;;;;;;;8.57;5.70;;;0.60;99.90;;;1.22;93.23;-19768.38;4974343;28;20259;-60
2022/03/06 03:39:34;;;;;;;7.10;5.63;;;0.60;99.90;;;1.38;91.93;-19773.84;4982177;28;20271;-60
2022/03/06 03:42:12;;;;;;;8.23;5.00;;;0.50;99.90;;;1.24;91.83;-19769.22;4974283;28;20220;-60
2022/03/06 03:44:40;;;;;;;7.23;5.60;;;0.50;99.90;;;1.37;91.53;-19773.34;4981149;28;20259;-59
2022/03/06 03:47:08;;;;;;;6.67;5.43;;;0.60;99.90;;;1.48;90.60;-19777.09;4980551;28;20682;-60
2022/03/06 03:49:40;;;;;;;5.87;4.80;;;0.60;99.90;;;1.64;90.11;-19782.72;4980879;28;20603;-61
2022/03/06 03:52:22;;;;;;;7.23;5.50;;;0.60;99.90;;;1.61;89.68;-19781.69;4979895;28;20249;-60
2022/03/06 03:54:55;;;;;;;7.30;5.23;;;0.70;99.90;;;1.59;90.59;-19781.03;4983673;28;20679;-60
2022/03/06 03:57:27;;;;;;;6.10;5.23;;;0.70;99.90;;;1.42;90.42;-19775.22;4982702;28;20320;-59
2022/03/06 04:00:03;;;;;;;5.53;5.03;;;0.70;99.90;;;1.60;89.94;-19781.38;4982347;28;20288;-59
2022/03/06 04:02:39;;;;;;;6.50;5.27;;;0.70;99.90;;;1.39;90.17;-19774.19;4974696;28;20247;-60
2022/03/06 04:05:09;;;;;;;7.10;4.67;;;0.60;99.90;;;1.30;90.51;-19771.09;4974837;28;20241;-60
2022/03/06 04:07:41;;;;;;;6.00;5.27;;;0.60;99.90;;;1.29;90.25;-19770.75;4980032;28;20318;-58
2022/03/06 04:10:17;;;;;;;8.80;5.67;;;0.60;99.90;;;1.29;90.83;-19770.75;4982105;28;20323;-58
2022/03/06 04:12:45;;;;;;;6.47;5.20;;;0.60;99.90;;;1.41;89.58;-19774.88;4966253;28;20300;-60
2022/03/06 04:15:17;;;;;;;5.83;4.90;;;0.60;99.90;;;1.44;90.00;-19775.88;4982244;28;20232;-59
2022/03/06 04:17:51;;;;;;;6.87;5.23;;;0.60;99.90;;;1.65;88.14;-19783.06;4974754;28;20240;-59
2022/03/06 04:20:27;;;;;;;6.10;4.70;;;0.70;99.90;;;1.86;87.75;-19790.25;4979494;28;20856;-59
2022/03/06 04:22:56;;;;;;;6.53;5.20;;;0.80;99.90;;;1.57;88.27;-19780.34;4980318;28;20243;-60
2022/03/06 04:25:32;;;;;;;8.30;5.13;;;0.80;99.90;;;1.71;86.63;-19785.13;4982580;28;20390;-60
2022/03/06 04:28:10;;;;;;;6.33;4.90;;;0.80;99.90;;;1.55;88.21;-19779.66;4976676;28;20540;-60
2022/03/06 04:30:51;;;;;;;5.83;4.90;;;0.80;99.90;;;1.50;87.88;-19777.94;4981214;28;20190;-60
2022/03/06 04:33:28;;;;;;;5.60;5.00;;;0.80;99.90;;;1.48;88.43;-19777.09;4990304;28;20263;-60
2022/03/06 04:35:56;;;;;;;6.47;4.77;;;0.70;99.90;;;1.39;88.84;-19774.19;5006337;28;20266;-60
2022/03/06 04:38:25;;;;;;;6.20;5.13;;;0.70;99.90;;;1.50;88.18;-19777.78;5007127;28;20267;-60
2022/03/06 04:41:01;;;;;;;7.10;5.17;;;0.70;99.90;;;1.51;88.44;-19778.28;4991318;28;20258;-59
2022/03/06 04:43:40;;;;;;;5.30;4.80;;;0.70;99.90;;;1.43;87.66;-19775.38;4982561;28;20231;-59
2022/03/06 04:46:15;;;;;;;5.43;4.90;;;0.60;99.90;;;1.48;88.37;-19777.09;4984302;28;20250;-59
2022/03/06 04:48:50;;;;;;;8.13;5.50;;;0.70;99.90;;;1.43;88.78;-19775.56;4985172;28;20266;-61
2022/03/06 04:51:18;;;;;;;6.83;5.17;;;0.70;99.90;;;1.27;89.56;-19770.25;4985381;28;20231;-59
2022/03/06 04:53:46;;;;;;;7.97;4.83;;;0.60;99.90;;;1.21;89.51;-19768.03;4975457;28;20258;-59
2022/03/06 04:56:24;;;;;;;6.57;5.13;;;0.60;99.90;;;1.39;88.60;-19774.19;4985185;28;20260;-62
2022/03/06 04:59:03;;;;;;;6.23;5.20;;;0.60;99.90;;;1.43;90.03;-19775.56;4978341;28;20227;-59
2022/03/06 05:01:31;;;;;;;5.20;4.63;;;0.70;99.90;;;1.84;86.37;-19789.56;4985494;28;20223;-59
2022/03/06 05:04:00;;;;;;;6.00;4.80;;;0.80;99.90;;;1.73;86.96;-19785.81;4985458;28;20714;-59
2022/03/06 05:06:36;;;;;;;5.97;5.17;;;0.80;99.90;;;1.54;85.50;-19779.16;4986199;28;20193;-60
2022/03/06 05:09:13;;;;;;;5.73;4.93;;;0.80;99.90;;;1.61;86.06;-19781.69;4958284;28;20279;-62
2022/03/06 05:11:48;;;;;;;7.70;5.30;;;0.80;99.90;;;1.91;83.03;-19791.97;4963829;28;20264;-60
2022/03/06 05:14:21;;;;;;;6.03;5.30;;;0.90;99.90;;;1.72;83.32;-19785.47;4985138;28;20291;-59
2022/03/06 05:16:52;;;;;;;5.43;4.70;;;0.80;99.90;;;1.64;82.64;-19782.72;4985417;28;20224;-60
2022/03/06 05:19:20;;;;;;;6.50;5.07;;;0.90;99.90;;;1.61;83.85;-19781.53;4987247;28;20318;-60
2022/03/06 05:21:52;;;;;;;8.67;5.97;;;0.90;99.90;;;1.94;81.60;-19793.00;4982446;28;20200;-59
2022/03/06 05:24:19;;;;;;;6.07;5.23;;;0.90;99.90;;;1.78;81.52;-19787.34;4984886;28;20257;-59
2022/03/06 05:26:49;;;;;;;7.77;5.73;;;0.90;99.90;;;1.77;81.14;-19787.19;4974183;28;20263;-60
2022/03/06 05:29:28;;;;;;;7.13;5.83;;;0.90;99.90;;;1.70;82.05;-19784.59;4974736;28;20256;-60
2022/03/06 05:32:01;;;;;;;6.10;5.37;;;0.90;99.90;;;1.77;82.19;-19787.00;4982234;28;20302;-59
2022/03/06 05:34:34;;;;;;;7.10;5.37;;;0.90;99.90;;;1.62;82.00;-19781.88;4968948;28;20330;-59
2022/03/06 05:37:08;;;;;;;7.03;5.80;;;0.90;99.90;;;1.44;82.91;-19775.88;4984576;28;20224;-59
2022/03/06 05:39:40;;;;;;;6.97;5.50;;;0.80;99.90;;;1.58;82.54;-19780.69;4980820;28;20208;-60
2022/03/06 05:42:17;;;;;;;7.97;5.70;;;0.80;99.90;;;1.68;82.01;-19783.94;4985680;28;20275;-59
2022/03/06 05:44:49;;;;;;;6.70;6.00;;;0.80;99.90;;;1.70;81.29;-19784.78;4981333;28;20242;-59
2022/03/06 05:47:22;;;;;;;8.57;5.57;;;0.80;99.90;;;1.77;81.12;-19787.00;4985437;28;20236;-59
2022/03/06 05:49:59;;;;;;;5.97;5.37;;;0.90;99.90;;;1.77;81.29;-19787.19;4984231;28;20295;-60
2022/03/06 05:52:34;;;;;;;8.03;6.20;;;0.90;99.90;;;1.82;81.64;-19788.88;4973900;28;20251;-60
2022/03/06 05:55:10;;;;;;;7.23;5.67;;;1.00;99.90;;;1.99;79.87;-19794.53;4981169;28;20232;-60
2022/03/06 05:57:47;;;;;;;7.27;6.20;;;1.00;99.90;;;1.70;81.80;-19784.59;4976990;28;20220;-60
2022/03/06 06:00:23;;;;;;;7.23;6.53;;;1.00;99.90;;;1.71;82.29;-19785.13;4984336;28;20587;-60
2022/03/06 06:02:58;;;;;;;7.33;6.27;;;1.00;99.90;;;2.00;79.66;-19795.03;4975653;28;20314;-60
2022/03/06 06:05:34;;;;;;;7.80;6.20;;;1.10;99.90;;;1.85;80.34;-19789.91;4983690;28;20250;-59
2022/03/06 06:08:09;;;;;;;8.33;5.77;;;1.00;99.90;;;1.94;78.88;-19792.81;4972994;28;20232;-58
2022/03/06 06:10:39;;;;;;;7.47;5.93;;;1.00;99.90;;;1.80;79.66;-19788.19;4984060;28;20237;-60
2022/03/06 06:13:19;;;;;;;8.17;6.30;;;1.00;99.90;;;1.72;80.53;-19785.47;4984103;28;20244;-59
2022/03/06 06:15:50;;;;;;;6.03;5.40;;;1.00;99.90;;;1.79;79.85;-19787.88;4970225;28;20200;-59
2022/03/06 06:18:19;;;;;;;7.53;6.67;;;1.00;99.90;;;2.01;79.52;-19795.22;4984060;28;20208;-59
2022/03/06 06:20:47;;;;;;;6.57;5.97;;;1.10;99.90;;;1.79;79.53;-19787.88;4972639;28;20275;-60
2022/03/06 06:23:20;;;;;;;7.37;6.50;;;1.00;99.90;;;1.83;79.17;-19789.22;4983830;28;20238;-60
2022/03/06 06:25:56;;;;;;;7.83;5.93;;;1.00;99.90;;;1.81;80.13;-19788.38;4975214;28;20241;-59
2022/03/06 06:28:35;;;;;;;7.03;5.87;;;1.00;99.90;;;1.89;79.08;-19791.28;4985237;28;20242;-60
2022/03/06 06:31:09;;;;;;;6.77;6.00;;;1.10;99.90;;;1.92;79.50;-19792.31;4976516;28;20722;-58
2022/03/06 06:33:39;;;;;;;7.60;6.60;;;1.10;99.90;;;1.98;79.11;-19794.19;4978193;28;20222;-61
2022/03/06 06:36:09;;;;;;;6.77;6.07;;;1.20;99.90;;;2.06;78.76;-19796.91;4984007;28;20230;-59
2022/03/06 06:38:41;;;;;;;6.60;5.97;;;1.20;99.90;;;2.05;79.66;-19796.56;4973871;28;20315;-60
2022/03/06 06:41:13;;;;;;;6.60;5.70;;;1.20;99.90;;;2.10;78.86;-19798.28;4973177;28;20236;-60
2022/03/06 06:43:49;;;;;;;7.07;5.90;;;1.30;99.90;;;2.06;78.09;-19796.91;4982192;28;20228;-60
2022/03/06 06:46:29;;;;;;;6.60;6.00;;;1.30;99.90;;;2.22;77.21;-19802.38;4983101;28;20695;-60
2022/03/06 06:48:57;;;;;;;6.13;5.43;;;1.30;99.90;;;2.33;76.65;-19806.16;4982900;28;20232;-58
2022/03/06 06:51:27;;;;;;;7.57;6.03;;;1.40;99.90;;;2.36;76.38;-19807.34;4983801;28;20236;-59
2022/03/06 06:54:02;;;;;;;7.00;6.30;;;1.40;99.90;;;2.37;76.66;-19807.69;4974868;28;20240;-60
2022/03/06 06:56:33;;;;;;;7.27;6.03;;;1.50;99.90;;;2.43;76.40;-19809.56;4983028;28;20310;-59
2022/03/06 06:59:13;;;;;;;6.60;5.70;;;1.50;99.90;;;2.57;75.71;-19814.38;4975570;28;20301;-59
2022/03/06 07:01:44;;;;;;;7.60;5.73;;;1.60;99.90;;;2.47;76.21;-19810.94;4983009;28;20234;-59
2022/03/06 07:04:12;;;;;;;8.10;6.70;;;1.60;99.90;;;2.63;76.08;-19816.25;4977590;28;20290;-59
2022/03/06 07:06:41;;;;;;;7.87;6.40;;;1.60;99.90;;;2.94;73.46;-19826.84;4973148;28;20220;-61
2022/03/06 07:09:16;;;;;;;6.40;5.47;;;1.80;99.90;;;3.08;72.77;-19831.78;4982319;28;20288;-60
2022/03/06 07:11:44;;;;;;;6.23;5.63;;;1.90;99.90;;;2.85;73.98;-19823.75;4982164;28;20265;-60
2022/03/06 07:14:14;;;;;;;8.43;6.13;;;1.80;99.90;;;2.91;73.80;-19825.97;4982982;28;20304;-61
2022/03/06 07:16:50;;;;;;;7.87;6.57;;;1.90;99.90;;;3.14;72.74;-19833.84;4970435;28;20616;-59
2022/03/06 07:19:21;;;;;;;6.70;6.03;;;2.00;99.90;;;2.97;73.87;-19828.03;4982479;28;20231;-61
2022/03/06 07:21:50;;;;;;;8.17;6.33;;;2.00;99.90;;;2.98;75.62;-19828.38;4972605;28;20239;-59
2022/03/06 07:24:19;;;;;;;6.90;6.13;;;1.90;99.90;;;2.84;76.82;-19823.41;4983717;28;20208;-59
2022/03/06 07:26:51;;;;;;;7.03;6.20;;;1.90;99.90;;;2.91;76.83;-19825.81;4978880;28;20247;-58
2022/03/06 07:29:25;;;;;;;7.10;6.10;;;2.00;99.90;;;2.98;74.58;-19828.38;4970825;28;20296;-59
2022/03/06 07:31:57;;;;;;;7.77;6.37;;;2.00;99.90;;;2.87;76.35;-19824.44;4976561;28;20235;-59
2022/03/06 07:34:28;;;;;;;9.83;8.87;;;1.90;99.90;;;3.18;76.28;-19835.22;4974350;28;20791;-60
2022/03/06 07:36:56;;;;;;;6.70;6.00;;;2.00;99.90;;;3.46;73.50;-19844.78;4981623;28;20265;-59
2022/03/06 07:39:29;;;;;;;7.87;5.90;;;2.20;99.90;;;3.27;75.15;-19838.28;4983679;28;20283;-60
2022/03/06 07:41:57;;;;;;;7.63;5.70;;;2.20;99.90;;;3.07;76.28;-19831.28;4982663;28;20712;-60
2022/03/06 07:44:35;;;;;;;7.73;6.00;;;2.10;99.90;;;3.11;75.65;-19832.81;4976885;28;20238;-60
2022/03/06 07:47:11;;;;;;;7.87;6.10;;;2.10;99.90;;;2.96;76.47;-19827.53;4985580;28;20227;-61
2022/03/06 07:49:39;;;;;;;7.27;5.83;;;2.00;99.90;;;3.16;76.30;-19834.53;4979743;28;20328;-61
2022/03/06 07:52:11;;;;;;;7.10;6.17;;;2.10;99.90;;;3.28;74.65;-19838.47;4978045;28;20262;-61
2022/03/06 07:54:50;;;;;;;7.57;6.17;;;2.20;99.90;;;3.42;74.29;-19843.41;4994435;28;20236;-60
2022/03/06 07:57:19;;;;;;;6.87;5.70;;;2.20;99.90;;;3.41;73.04;-19842.91;4984784;28;20242;-59
2022/03/06 07:59:50;;;;;;;6.90;6.20;;;2.30;99.90;;;3.28;73.71;-19838.63;4977852;28;20296;-61
2022/03/06 08:02:18;;;;;;;6.97;6.27;;;2.30;99.90;;;3.44;73.46;-19843.94;4984504;28;20335;-61
2022/03/06 08:04:47;;;;;;;7.63;6.60;;;2.30;99.90;;;3.75;71.84;-19854.53;4970950;28;20257;-61
2022/03/06 08:07:18;;;;;;;7.97;6.13;;;2.50;99.90;;;3.63;70.71;-19850.59;4982563;28;20255;-62
2022/03/06 08:09:51;;;;;;;7.00;6.30;;;2.50;99.90;;;3.47;71.03;-19844.97;4983390;28;20456;-62
2022/03/06 08:12:24;;;;;;;6.97;6.10;;;2.50;99.90;;;3.70;70.57;-19853.00;4986831;28;20252;-63
2022/03/06 08:14:54;;;;;;;6.80;6.10;;;2.50;99.90;;;4.41;65.86;-19877.09;4977143;28;20283;-63
2022/03/06 08:17:26;;;;;;;6.97;6.03;;;2.90;99.90;;;4.22;66.17;-19870.59;4975087;28;20238;-63
2022/03/06 08:20:05;;;;;;;8.13;7.07;;;3.00;99.90;;;4.21;64.89;-19870.25;4983447;28;20249;-61
2022/03/06 08:22:38;;;;;;;7.23;6.00;;;3.00;99.90;;;4.16;66.04;-19868.38;4981494;28;20728;-61
2022/03/06 08:25:10;;;;;;;7.53;6.77;;;3.00;99.90;;;4.40;63.94;-19876.56;4984537;28;20902;-63
2022/03/06 08:27:39;;;;;;;6.80;5.87;;;3.10;99.90;;;4.20;64.70;-19869.91;4980460;28;20223;-62
2022/03/06 08:30:16;;;;;;;6.57;5.87;;;3.10;99.90;;;4.15;66.08;-19868.03;4987882;28;20269;-61
2022/03/06 08:32:50;;;;;;;7.43;6.17;;;3.10;99.90;;;4.38;63.91;-19876.06;4979348;28;20301;-62
2022/03/06 08:35:24;;;;;;;6.93;5.97;;;3.20;99.90;;;4.59;63.84;-19883.06;4984432;28;20246;-61
2022/03/06 08:37:53;;;;;;;8.03;7.23;;;3.30;99.90;;;4.54;62.41;-19881.53;4986807;28;20255;-63
2022/03/06 08:40:40;;;;;;;6.80;6.20;;;3.30;99.90;;;4.46;62.73;-19878.81;4983802;28;20716;-63
2022/03/06 08:43:08;;;;;;;6.73;5.97;;;3.30;99.90;;;4.37;63.36;-19875.72;4978675;28;20318;-61
2022/03/06 08:45:40;;;;;;;5.97;5.37;;;3.20;99.90;;;4.21;64.00;-19870.09;4997344;28;20212;-61
2022/03/06 08:48:10;;;;;;;7.00;6.30;;;3.10;99.90;;;4.55;61.63;-19881.88;4984438;28;20216;-61
2022/03/06 08:50:42;;;;;;;6.67;5.97;;;3.30;99.90;;;4.42;62.36;-19877.25;4985155;28;20296;-62
2022/03/06 08:53:22;;;;;;;7.97;5.87;;;3.30;99.90;;;4.53;62.59;-19881.03;4978504;28;20232;-63
2022/03/06 08:56:00;;;;;;;6.17;5.57;;;3.30;99.90;;;4.62;61.59;-19884.09;4977482;28;20691;-61
2022/03/06 08:58:45;;;;;;;7.00;6.17;;;3.30;99.90;;;4.80;60.88;-19890.41;4989289;28;20244;-64
2022/03/06 09:01:19;;;;;;;7.30;6.30;;;3.40;99.90;;;4.94;60.82;-19895.22;4985079;28;20239;-61
2022/03/06 09:03:53;;;;;;;7.33;5.80;;;3.40;99.90;;;4.87;59.99;-19892.81;4981616;28;20190;-62
2022/03/06 09:06:21;;;;;;;6.80;6.10;;;3.60;99.90;;;4.89;58.32;-19893.50;4983075;28;20285;-63
2022/03/06 09:08:52;;;;;;;7.47;6.17;;;3.70;99.90;;;4.48;60.40;-19879.47;4983452;28;20258;-61
2022/03/06 09:11:25;;;;;;;7.87;6.37;;;3.50;99.90;;;4.41;61.35;-19877.09;4980658;28;20248;-62
2022/03/06 09:13:54;;;;;;;6.80;6.10;;;3.40;99.90;;;4.72;60.73;-19887.50;4980962;28;20605;-61
2022/03/06 09:16:23;;;;;;;6.70;6.00;;;3.50;99.90;;;4.86;61.08;-19892.31;4985049;28;20345;-61
2022/03/06 09:18:52;;;;;;;8.03;6.30;;;3.60;99.90;;;4.95;60.04;-19895.56;4985528;28;20210;-63
2022/03/06 09:21:27;;;;;;;6.70;6.00;;;3.70;99.90;;;4.80;59.32;-19890.41;4984024;28;20229;-63
2022/03/06 09:24:06;;;;;;;8.23;6.63;;;3.60;99.90;;;5.12;59.39;-19901.19;4978650;28;20632;-61
2022/03/06 09:26:34;;;;;;;7.73;6.80;;;3.70;99.90;;;5.08;60.03;-19899.81;4984502;28;20728;-64
2022/03/06 09:29:03;;;;;;;9.00;6.60;;;3.70;99.90;;;5.32;59.11;-19907.84;4973169;28;20320;-61
2022/03/06 09:31:42;;;;;;;8.00;6.27;;;3.80;99.90;;;5.39;57.58;-19910.44;4971766;28;20240;-62
2022/03/06 09:34:10;;;;;;;8.07;6.53;;;3.90;99.90;;;5.07;58.48;-19899.31;4982173;28;20674;-63
2022/03/06 09:36:53;;;;;;;8.07;6.80;;;3.90;99.90;;;5.13;59.29;-19901.53;4986272;28;20217;-62
2022/03/06 09:39:23;;;;;;;7.97;6.80;;;3.90;99.90;;;5.24;58.50;-19905.13;4987614;28;20607;-64
2022/03/06 09:42:07;;;;;;;9.03;6.90;;;3.90;99.90;;;5.04;58.36;-19898.47;5000390;28;20325;-62
2022/03/06 09:44:39;;;;;;;7.93;6.23;;;3.80;99.90;;;4.65;59.80;-19885.13;5004331;28;20229;-62
2022/03/06 09:47:19;;;;;;;7.53;6.43;;;3.60;99.90;;;4.84;59.75;-19891.78;4997692;28;20230;-63
2022/03/06 09:49:48;;;;;;;6.80;6.10;;;3.60;99.90;;;4.89;60.50;-19893.50;4996991;28;20297;-57
2022/03/06 09:52:34;;;;;;;7.57;6.67;;;3.50;99.90;;;5.03;58.85;-19897.94;4973149;28;20352;-59
2022/03/06 09:55:12;;;;;;;6.70;6.00;;;3.70;99.90;;;5.17;58.00;-19902.91;4985622;28;20296;-58
2022/03/06 09:57:41;;;;;;;9.27;6.27;;;3.70;99.90;;;5.16;57.95;-19902.41;4923788;28;20309;-60
2022/03/06 10:00:11;;;;;;;6.80;6.10;;;3.70;99.90;;;5.27;57.69;-19906.16;4960177;28;20272;-53
2022/03/06 10:02:59;;;;;;;7.03;6.33;;;3.80;99.90;;;5.32;57.86;-19908.03;4968037;28;20206;-54
2022/03/06 10:05:30;;;;;;;6.97;6.23;;;4.00;99.90;;;5.40;57.78;-19910.75;4969586;28;20195;-53
2022/03/06 10:08:20;;;;;;;7.10;5.87;;;4.00;99.90;;;5.61;56.54;-19917.94;4953715;29;20216;-53
2022/03/06 10:10:51;;;;;;;7.27;5.90;;;4.10;99.90;;;5.50;56.32;-19914.00;4952999;29;20286;-54
2022/03/06 10:13:28;;;;;;;6.53;5.73;;;4.10;99.90;;;5.56;56.96;-19916.06;4952793;29;20734;-51
2022/03/06 10:16:10;;;;;;;6.97;6.27;;;4.10;99.90;;;5.67;55.70;-19920.00;4971594;28;20237;-54
2022/03/06 10:18:43;;;;;;;8.00;6.77;;;4.20;99.90;;;5.79;56.10;-19924.09;4972040;28;20276;-53
2022/03/06 10:21:25;;;;;;;6.93;6.23;;;4.30;99.90;;;6.08;54.71;-19934.00;4972267;28;20313;-59
2022/03/06 10:23:56;;;;;;;6.03;5.53;;;4.50;99.90;;;5.58;56.31;-19916.75;4972025;28;20223;-52
2022/03/06 10:26:27;;;;;;;6.53;5.93;;;4.40;99.90;;;5.72;56.25;-19921.53;4972531;28;20180;-55
2022/03/06 10:28:58;;;;;;;6.40;5.67;;;4.40;99.90;;;6.01;55.47;-19931.44;4971827;28;20332;-52
2022/03/06 10:31:29;;;;;;;7.00;6.20;;;4.50;99.90;;;6.05;55.21;-19932.81;4965242;28;20317;-53
2022/03/06 10:34:03;;;;;;;7.27;6.20;;;4.50;99.90;;;5.93;54.66;-19928.72;4952279;28;20249;-51
2022/03/06 10:36:38;;;;;;;6.37;5.70;;;4.50;99.90;;;5.59;56.12;-19917.25;4952764;29;20242;-60
2022/03/06 10:39:14;;;;;;;6.20;5.60;;;4.20;99.90;;;5.99;55.63;-19930.75;4952792;29;20255;-56
2022/03/06 10:41:47;;;;;;;6.87;6.13;;;4.40;99.90;;;6.34;55.18;-19942.72;4953072;29;20196;-56
2022/03/06 10:44:17;;;;;;;6.90;6.20;;;4.60;99.90;;;6.19;55.87;-19937.59;4952879;29;20229;-60
2022/03/06 10:47:01;;;;;;;9.23;6.20;;;4.60;99.90;;;6.21;54.13;-19938.13;4952384;29;20777;-59
2022/03/06 10:49:32;;;;;;;7.40;6.10;;;4.70;99.90;;;5.98;53.38;-19930.59;4952596;29;20255;-56
2022/03/06 10:52:15;;;;;;;7.07;5.57;;;4.60;99.90;;;5.61;54.39;-19917.94;4952575;29;20314;-55